createdAt,value
2023-08-15T00:01:44.858Z,101105.00
2023-08-15T00:04:11.415Z,101101.00
2023-08-15T00:06:37.895Z,101103.00
2023-08-15T00:09:04.552Z,101104.60
2023-08-15T00:11:31.110Z,101109.00
2023-08-15T00:13:57.925Z,101108.60
2023-08-15T00:16:24.920Z,101108.80
2023-08-15T00:18:51.539Z,101107.40
2023-08-15T00:21:18.282Z,101100.60
2023-08-15T00:23:44.724Z,101103.60
2023-08-15T00:26:11.168Z,101105.80
2023-08-15T00:28:37.664Z,101102.00
2023-08-15T00:31:04.069Z,101101.00
2023-08-15T00:33:30.530Z,101102.60
2023-08-15T00:35:57.028Z,101100.00
2023-08-15T00:38:23.548Z,101101.20
2023-08-15T00:40:50.188Z,101105.40
2023-08-15T00:43:18.563Z,101098.20
2023-08-15T00:45:45.684Z,101093.80
2023-08-15T00:48:12.831Z,101088.00
2023-08-15T00:50:45.798Z,101082.00
2023-08-15T00:53:12.865Z,101079.40
2023-08-15T00:55:39.533Z,101079.80
2023-08-15T00:58:06.524Z,101078.60
2023-08-15T01:00:33.307Z,101077.80
2023-08-15T01:03:00.233Z,101081.60
2023-08-15T01:05:29.590Z,101080.80
2023-08-15T01:07:56.715Z,101078.80
2023-08-15T01:10:23.659Z,101077.20
2023-08-15T01:13:32.225Z,101075.20
2023-08-15T01:16:03.279Z,101070.80
2023-08-15T01:18:39.909Z,101071.40
2023-08-15T01:21:07.221Z,101071.80
2023-08-15T01:23:53.571Z,101074.80
2023-08-15T01:26:20.057Z,101071.60
2023-08-15T01:28:46.543Z,101064.00
2023-08-15T01:31:30.565Z,101059.40
2023-08-15T01:34:11.024Z,101057.40
2023-08-15T01:36:45.495Z,101056.20
2023-08-15T01:39:18.522Z,101054.20
2023-08-15T01:41:46.998Z,101048.00
2023-08-15T01:44:15.240Z,101046.20
2023-08-15T01:46:41.792Z,101048.40
2023-08-15T01:49:08.260Z,101053.00
2023-08-15T01:51:34.613Z,101050.80
2023-08-15T01:54:01.060Z,101047.80
2023-08-15T01:56:27.587Z,101046.40
2023-08-15T01:58:54.097Z,101049.80
2023-08-15T02:01:20.565Z,101050.40
2023-08-15T02:03:47.083Z,101047.00
2023-08-15T02:06:13.569Z,101044.00
2023-08-15T02:08:40.065Z,101032.80
2023-08-15T02:11:06.554Z,101031.40
2023-08-15T02:13:34.183Z,101034.80
2023-08-15T02:16:01.529Z,101038.40
2023-08-15T02:18:30.475Z,101041.40
2023-08-15T02:20:56.937Z,101046.40
2023-08-15T02:23:23.578Z,101051.40
2023-08-15T02:25:50.067Z,101049.00
2023-08-15T02:28:16.601Z,101054.40
2023-08-15T02:30:43.351Z,101057.80
2023-08-15T02:33:09.775Z,101054.60
2023-08-15T02:35:41.129Z,101057.00
2023-08-15T02:38:07.776Z,101053.80
2023-08-15T02:40:34.412Z,101059.80
2023-08-15T02:43:00.882Z,101053.60
2023-08-15T02:45:27.520Z,101061.40
2023-08-15T02:47:54.134Z,101056.40
2023-08-15T02:50:20.592Z,101053.40
2023-08-15T02:52:47.028Z,101057.20
2023-08-15T02:55:13.467Z,101056.20
2023-08-15T02:57:39.895Z,101053.80
2023-08-15T03:00:08.487Z,101055.00
2023-08-15T03:02:35.096Z,101057.40
2023-08-15T03:05:01.972Z,101061.20
2023-08-15T03:07:28.442Z,101060.40
2023-08-15T03:09:54.941Z,101052.00
2023-08-15T03:12:21.366Z,101049.80
2023-08-15T03:14:47.948Z,101051.20
2023-08-15T03:17:14.609Z,101048.00
2023-08-15T03:19:41.351Z,101047.00
2023-08-15T03:22:07.978Z,101041.60
2023-08-15T03:24:34.533Z,101038.20
2023-08-15T03:27:03.936Z,101035.60
2023-08-15T03:29:31.013Z,101034.60
2023-08-15T03:31:59.501Z,101034.80
2023-08-15T03:34:26.048Z,101034.00
2023-08-15T03:36:52.848Z,101032.60
2023-08-15T03:39:19.263Z,101036.00
2023-08-15T03:41:45.829Z,101034.20
2023-08-15T03:44:12.395Z,101038.60
2023-08-15T03:46:41.384Z,101040.00
2023-08-15T03:49:08.359Z,101042.60
2023-08-15T03:54:05.456Z,101041.20
2023-08-15T03:56:31.970Z,101037.40
2023-08-15T03:58:58.364Z,101032.20
2023-08-15T04:01:24.804Z,101027.60
2023-08-15T04:03:52.587Z,101031.00
2023-08-15T04:06:19.049Z,101031.80
2023-08-15T04:08:46.001Z,101036.00
2023-08-15T04:11:12.478Z,101030.20
2023-08-15T04:13:39.397Z,101029.60
2023-08-15T04:16:05.903Z,101035.00
2023-08-15T04:18:35.036Z,101037.00
2023-08-15T04:21:01.691Z,101033.20
2023-08-15T04:23:28.149Z,101028.60
2023-08-15T04:25:54.693Z,101029.40
2023-08-15T04:28:22.066Z,101031.20
2023-08-15T04:30:48.536Z,101023.20
2023-08-15T04:33:15.073Z,101026.40
2023-08-15T04:35:41.550Z,101017.60
2023-08-15T04:38:10.840Z,101017.40
2023-08-15T04:40:40.884Z,101014.60
2023-08-15T04:43:08.183Z,101009.00
2023-08-15T04:45:40.957Z,101008.40
2023-08-15T04:48:09.159Z,101006.60
2023-08-15T04:50:35.551Z,101011.80
2023-08-15T04:53:02.085Z,101009.60
2023-08-15T04:55:28.529Z,101009.60
2023-08-15T04:57:55.008Z,101011.60
2023-08-15T05:00:21.646Z,101011.60
2023-08-15T05:02:48.271Z,101014.40
2023-08-15T05:05:15.620Z,101020.80
2023-08-15T05:07:42.228Z,101014.80
2023-08-15T05:10:09.006Z,101017.60
2023-08-15T05:12:35.641Z,101015.00
2023-08-15T05:15:02.908Z,101013.40
2023-08-15T05:17:31.982Z,101009.60
2023-08-15T05:19:59.022Z,101012.00
2023-08-15T05:22:25.420Z,101013.80
2023-08-15T05:24:52.150Z,101014.20
2023-08-15T05:27:18.712Z,101007.00
2023-08-15T05:29:45.355Z,101008.60
2023-08-15T05:32:11.810Z,101009.00
2023-08-15T05:34:38.362Z,101010.80
2023-08-15T05:37:04.884Z,101013.80
2023-08-15T05:39:31.320Z,101014.00
2023-08-15T05:41:57.822Z,101013.80
2023-08-15T05:44:26.074Z,101012.20
2023-08-15T05:46:52.593Z,101018.80
2023-08-15T05:49:19.133Z,101019.00
2023-08-15T05:51:45.695Z,101021.40
2023-08-15T05:54:12.114Z,101019.00
2023-08-15T05:56:39.397Z,101024.80
2023-08-15T05:59:05.837Z,101028.00
2023-08-15T06:01:32.248Z,101027.80
2023-08-15T06:03:58.879Z,101023.20
2023-08-15T06:06:25.425Z,101020.00
2023-08-15T06:08:51.870Z,101010.80
2023-08-15T06:11:18.288Z,101009.60
2023-08-15T06:13:44.743Z,101011.20
2023-08-15T06:16:13.438Z,101012.20
2023-08-15T06:18:40.522Z,101014.40
2023-08-15T06:21:06.926Z,101020.60
2023-08-15T06:23:33.430Z,101022.60
2023-08-15T06:25:59.877Z,101017.40
2023-08-15T06:28:26.515Z,101022.00
2023-08-15T06:30:52.936Z,101019.00
2023-08-15T06:33:19.629Z,101022.20
2023-08-15T06:35:46.131Z,101022.20
2023-08-15T06:38:12.652Z,101013.00
2023-08-15T06:40:40.346Z,101014.40
2023-08-15T06:43:06.807Z,101015.80
2023-08-15T06:45:37.087Z,101027.40
2023-08-15T06:48:05.998Z,101020.00
2023-08-15T06:50:34.088Z,101017.00
2023-08-15T06:53:00.612Z,101011.00
2023-08-15T06:55:27.045Z,101009.00
2023-08-15T06:57:54.536Z,101015.80
2023-08-15T07:00:21.366Z,101017.60
2023-08-15T07:02:47.972Z,101018.20
2023-08-15T07:05:15.230Z,101014.20
2023-08-15T07:07:41.939Z,101013.80
2023-08-15T07:10:10.746Z,101018.00
2023-08-15T07:12:37.342Z,101020.60
2023-08-15T07:15:04.698Z,101021.60
2023-08-15T07:17:31.381Z,101016.80
2023-08-15T07:19:58.332Z,101011.20
2023-08-15T07:22:24.788Z,101007.20
2023-08-15T07:24:51.291Z,101012.00
2023-08-15T07:27:18.263Z,101000.00
2023-08-15T07:29:45.305Z,100995.80
2023-08-15T07:32:13.601Z,100990.40
2023-08-15T07:34:41.326Z,100991.00
2023-08-15T07:37:07.947Z,100991.00
2023-08-15T07:39:34.627Z,100985.60
2023-08-15T07:42:01.116Z,100988.80
2023-08-15T07:44:28.109Z,100984.40
2023-08-15T07:46:54.676Z,100983.60
2023-08-15T07:49:21.302Z,100981.00
2023-08-15T07:51:47.890Z,100983.60
2023-08-15T07:54:14.396Z,100982.40
2023-08-15T07:56:40.992Z,100978.80
2023-08-15T07:59:07.491Z,100979.20
2023-08-15T08:01:34.184Z,100972.00
2023-08-15T08:04:01.321Z,100974.20
2023-08-15T08:06:39.842Z,100965.80
2023-08-15T08:09:08.942Z,100971.80
2023-08-15T08:11:35.432Z,100974.40
2023-08-15T08:14:01.897Z,100978.20
2023-08-15T08:16:29.269Z,100984.00
2023-08-15T08:18:56.104Z,100980.40
2023-08-15T08:21:23.440Z,100974.60
2023-08-15T08:23:49.984Z,100967.60
2023-08-15T08:26:16.443Z,100965.20
2023-08-15T08:28:42.884Z,100969.00
2023-08-15T08:31:09.556Z,100975.60
2023-08-15T08:33:36.096Z,100972.80
2023-08-15T08:36:02.775Z,100979.00
2023-08-15T08:38:29.240Z,100974.40
2023-08-15T08:40:56.177Z,100976.00
2023-08-15T08:43:23.298Z,100980.40
2023-08-15T08:45:55.054Z,100968.00
2023-08-15T08:48:22.901Z,100970.00
2023-08-15T08:50:49.916Z,100968.20
2023-08-15T08:53:16.703Z,100959.20
2023-08-15T08:55:47.862Z,100962.80
2023-08-15T08:58:15.079Z,100960.80
2023-08-15T09:00:42.141Z,100959.80
2023-08-15T09:03:10.521Z,100957.00
2023-08-15T09:05:38.227Z,100954.20
2023-08-15T09:08:06.885Z,100953.40
2023-08-15T09:10:33.546Z,100953.40
2023-08-15T09:13:01.346Z,100952.60
2023-08-15T09:15:29.377Z,100953.00
2023-08-15T09:18:05.223Z,100948.80
2023-08-15T09:20:31.986Z,100945.20
2023-08-15T09:23:00.874Z,100948.40
2023-08-15T09:25:28.745Z,100940.40
2023-08-15T09:27:55.268Z,100939.80
2023-08-15T09:30:22.860Z,100933.60
2023-08-15T09:32:49.626Z,100927.20
2023-08-15T09:35:19.153Z,100928.60
2023-08-15T09:37:50.774Z,100923.80
2023-08-15T09:40:26.215Z,100922.20
2023-08-15T09:42:53.651Z,100917.80
2023-08-15T09:45:20.893Z,100915.60
2023-08-15T09:47:47.627Z,100905.60
2023-08-15T09:50:18.685Z,100907.00
2023-08-15T09:52:50.667Z,100910.20
2023-08-15T09:55:19.488Z,100908.80
2023-08-15T09:57:46.600Z,100899.80
2023-08-15T10:00:17.842Z,100902.00
2023-08-15T10:03:20.405Z,100907.60
2023-08-15T10:05:55.036Z,100903.20
2023-08-15T10:08:23.712Z,100903.60
2023-08-15T10:10:52.549Z,100897.40
2023-08-15T10:13:34.089Z,100900.00
2023-08-15T10:16:04.548Z,100896.00
2023-08-15T10:18:34.171Z,100900.60
2023-08-15T10:21:01.985Z,100896.80
2023-08-15T10:23:35.101Z,100897.00
2023-08-15T10:26:02.663Z,100888.40
2023-08-15T10:28:33.669Z,100892.40
2023-08-15T10:31:00.719Z,100890.60
2023-08-15T10:33:32.235Z,100897.40
2023-08-15T10:35:58.662Z,100896.00
2023-08-15T10:38:31.582Z,100898.60
2023-08-15T10:41:04.244Z,100893.80
2023-08-15T10:43:34.571Z,100897.00
2023-08-15T10:46:07.538Z,100909.20
2023-08-15T10:49:00.187Z,100908.20
2023-08-15T10:51:32.438Z,100915.20
2023-08-15T10:54:08.025Z,100912.00
2023-08-15T10:56:41.352Z,100922.00
2023-08-15T10:59:14.231Z,100914.00
2023-08-15T11:01:43.938Z,100917.40
2023-08-15T11:04:15.897Z,100912.00
2023-08-15T11:06:48.070Z,100917.80
2023-08-15T11:09:17.847Z,100911.60
2023-08-15T11:11:45.795Z,100910.80
2023-08-15T11:14:18.104Z,100905.80
2023-08-15T11:16:49.741Z,100903.00
2023-08-15T11:19:20.294Z,100909.60
2023-08-15T11:21:50.557Z,100905.20
2023-08-15T11:24:17.184Z,100908.40
2023-08-15T11:26:44.855Z,100916.60
2023-08-15T11:29:13.091Z,100920.60
2023-08-15T11:31:40.179Z,100915.40
2023-08-15T11:34:07.979Z,100911.60
2023-08-15T11:36:36.982Z,100903.20
2023-08-15T11:39:04.085Z,100903.80
2023-08-15T11:41:34.111Z,100899.20
2023-08-15T11:44:04.581Z,100899.60
2023-08-15T11:47:39.934Z,100902.60
2023-08-15T11:50:37.914Z,100910.80
2023-08-15T11:53:22.977Z,100901.00
2023-08-15T11:55:51.831Z,100908.40
2023-08-15T11:58:33.375Z,100897.80
2023-08-15T12:01:06.645Z,100904.00
2023-08-15T12:03:37.054Z,100897.80
2023-08-15T12:06:10.077Z,100894.80
2023-08-15T12:08:39.872Z,100896.20
2023-08-15T12:11:11.035Z,100897.40
2023-08-15T12:13:41.517Z,100897.00
2023-08-15T12:16:11.484Z,100892.40
2023-08-15T12:18:39.886Z,100893.00
2023-08-15T12:21:09.750Z,100889.80
2023-08-15T12:23:37.690Z,100892.20
2023-08-15T12:26:04.591Z,100892.00
2023-08-15T12:28:31.293Z,100888.00
2023-08-15T12:32:39.722Z,100887.00
2023-08-15T12:35:06.855Z,100889.60
2023-08-15T12:37:33.470Z,100887.20
2023-08-15T12:40:00.514Z,100882.60
2023-08-15T12:42:28.273Z,100886.40
2023-08-15T12:44:55.204Z,100889.00
2023-08-15T12:48:31.981Z,100891.60
2023-08-15T12:51:00.103Z,100887.40
2023-08-15T12:53:26.615Z,100884.80
2023-08-15T12:55:53.129Z,100884.20
2023-08-15T12:58:19.588Z,100879.20
2023-08-15T13:00:49.244Z,100888.60
2023-08-15T13:03:15.861Z,100892.00
2023-08-15T13:05:42.530Z,100888.80
2023-08-15T13:08:09.057Z,100891.80
2023-08-15T13:10:35.661Z,100892.80
2023-08-15T13:13:02.429Z,100897.00
2023-08-15T13:15:28.962Z,100896.40
2023-08-15T13:17:55.870Z,100884.20
2023-08-15T13:20:22.524Z,100887.40
2023-08-15T13:22:49.090Z,100892.00
2023-08-15T13:25:15.710Z,100894.20
2023-08-15T13:27:42.140Z,100893.60
2023-08-15T13:30:08.836Z,100893.60
2023-08-15T13:32:35.419Z,100894.00
2023-08-15T13:35:02.017Z,100894.20
2023-08-15T13:37:28.663Z,100891.40
2023-08-15T13:40:00.259Z,100899.20
2023-08-15T13:42:37.564Z,100900.00
2023-08-15T13:45:11.478Z,100900.60
2023-08-15T13:47:38.262Z,100897.80
2023-08-15T13:50:06.039Z,100898.00
2023-08-15T13:52:32.808Z,100897.60
2023-08-15T13:54:59.227Z,100895.00
2023-08-15T13:57:25.707Z,100896.00
2023-08-15T13:59:52.995Z,100896.40
2023-08-15T14:02:19.522Z,100898.20
2023-08-15T14:04:45.968Z,100895.20
2023-08-15T14:07:12.508Z,100895.80
2023-08-15T14:09:39.015Z,100888.80
2023-08-15T14:12:05.947Z,100892.80
2023-08-15T14:14:32.486Z,100897.20
2023-08-15T14:16:59.051Z,100893.20
2023-08-15T14:19:25.549Z,100896.00
2023-08-15T14:21:52.075Z,100892.00
2023-08-15T14:24:18.702Z,100904.00
2023-08-15T14:26:45.199Z,100899.20
2023-08-15T14:29:12.941Z,100897.40
2023-08-15T14:31:39.616Z,100894.00
2023-08-15T14:34:06.089Z,100896.60
2023-08-15T14:36:32.636Z,100893.40
2023-08-15T14:38:59.100Z,100893.60
2023-08-15T14:41:25.596Z,100897.80
2023-08-15T14:43:52.452Z,100902.60
2023-08-15T14:46:19.050Z,100902.80
2023-08-15T14:48:45.585Z,100905.40
2023-08-15T14:51:12.149Z,100902.80
2023-08-15T14:53:38.697Z,100910.40
2023-08-15T14:56:06.917Z,100913.20
2023-08-15T14:58:33.455Z,100908.60
2023-08-15T15:01:00.028Z,100905.80
2023-08-15T15:03:26.931Z,100897.80
2023-08-15T15:05:53.728Z,100901.00
2023-08-15T15:08:20.215Z,100905.40
2023-08-15T15:10:46.851Z,100909.40
2023-08-15T15:13:13.623Z,100910.40
2023-08-15T15:15:53.829Z,100911.80
2023-08-15T15:18:22.896Z,100910.60
2023-08-15T15:20:49.814Z,100909.00
2023-08-15T15:23:16.630Z,100912.00
2023-08-15T15:25:47.886Z,100908.80
2023-08-15T15:28:15.133Z,100909.00
2023-08-15T15:30:41.712Z,100907.60
2023-08-15T15:33:08.381Z,100910.80
2023-08-15T15:35:35.078Z,100905.80
2023-08-15T15:38:01.569Z,100915.20
2023-08-15T15:40:28.130Z,100908.60
2023-08-15T15:42:54.663Z,100915.40
2023-08-15T15:45:21.471Z,100910.60
2023-08-15T15:47:48.201Z,100908.60
2023-08-15T15:50:20.114Z,100909.00
2023-08-15T15:52:47.939Z,100907.40
2023-08-15T15:55:20.235Z,100909.40
2023-08-15T15:57:46.850Z,100909.20
2023-08-15T16:00:16.615Z,100908.00
2023-08-15T16:02:44.132Z,100908.80
2023-08-15T16:05:12.505Z,100911.00
2023-08-15T16:07:39.365Z,100911.20
2023-08-15T16:10:07.245Z,100912.80
2023-08-15T16:12:34.108Z,100910.00
2023-08-15T16:15:01.104Z,100912.80
2023-08-15T16:17:27.785Z,100909.00
2023-08-15T16:19:54.929Z,100911.40
2023-08-15T16:22:22.325Z,100910.40
2023-08-15T16:24:49.077Z,100914.60
2023-08-15T16:27:15.522Z,100922.80
2023-08-15T16:29:42.026Z,100922.60
2023-08-15T16:32:08.623Z,100933.60
2023-08-15T16:34:35.080Z,100932.60
2023-08-15T16:37:01.539Z,100934.60
2023-08-15T16:39:28.053Z,100946.00
2023-08-15T16:41:54.508Z,100948.00
2023-08-15T16:44:21.096Z,100950.00
2023-08-15T16:46:48.055Z,100952.40
2023-08-15T16:49:14.617Z,100956.20
2023-08-15T16:51:41.488Z,100951.00
2023-08-15T16:54:08.045Z,100951.80
2023-08-15T16:56:34.868Z,100957.60
2023-08-15T16:59:01.367Z,100956.20
2023-08-15T17:01:27.982Z,100966.20
2023-08-15T17:03:54.748Z,100962.00
2023-08-15T17:06:21.359Z,100968.40
2023-08-15T17:08:48.013Z,100970.00
2023-08-15T17:11:14.618Z,100968.00
2023-08-15T17:13:41.210Z,100968.40
2023-08-15T17:16:07.788Z,100971.20
2023-08-15T17:18:34.388Z,100977.40
2023-08-15T17:21:01.116Z,100981.80
2023-08-15T17:23:27.783Z,100982.20
2023-08-15T17:25:54.278Z,100987.40
2023-08-15T17:28:20.812Z,100986.40
2023-08-15T17:30:47.413Z,100987.60
2023-08-15T17:33:13.889Z,100989.80
2023-08-15T17:35:40.364Z,100987.20
2023-08-15T17:38:06.894Z,100990.40
2023-08-15T17:40:35.175Z,100993.80
2023-08-15T17:43:01.891Z,100997.40
2023-08-15T17:45:28.642Z,101001.20
2023-08-15T17:47:55.182Z,101002.80
2023-08-15T17:50:21.769Z,101006.20
2023-08-15T17:52:48.595Z,101002.00
2023-08-15T17:55:15.463Z,101003.80
2023-08-15T17:57:42.018Z,101001.60
2023-08-15T18:00:09.980Z,101009.00
2023-08-15T18:02:38.522Z,101013.40
2023-08-15T18:05:06.088Z,101014.80
2023-08-15T18:07:32.945Z,101014.80
2023-08-15T18:10:00.508Z,101010.60
2023-08-15T18:12:29.452Z,101020.80
2023-08-15T18:14:56.528Z,101025.60
2023-08-15T18:17:24.222Z,101026.40
2023-08-15T18:19:51.004Z,101030.60
2023-08-15T18:22:18.551Z,101031.80
2023-08-15T18:24:47.082Z,101036.40
2023-08-15T18:27:13.585Z,101041.80
2023-08-15T18:29:40.443Z,101042.80
2023-08-15T18:32:07.110Z,101040.60
2023-08-15T18:34:33.790Z,101045.00
2023-08-15T18:37:00.311Z,101044.60
2023-08-15T18:39:26.750Z,101049.20
2023-08-15T18:41:53.414Z,101047.40
2023-08-15T18:44:19.845Z,101057.60
2023-08-15T18:46:47.976Z,101060.60
2023-08-15T18:49:14.796Z,101055.40
2023-08-15T18:51:41.345Z,101057.80
2023-08-15T18:54:08.514Z,101060.80
2023-08-15T18:56:35.193Z,101062.80
2023-08-15T18:59:01.693Z,101068.00
2023-08-15T19:01:28.401Z,101063.20
2023-08-15T19:03:55.219Z,101059.20
2023-08-15T19:06:21.863Z,101062.20
2023-08-15T19:08:48.530Z,101052.80
2023-08-15T19:11:15.183Z,101057.00
2023-08-15T19:13:41.941Z,101059.00
2023-08-15T19:16:08.449Z,101061.80
2023-08-15T19:18:35.412Z,101065.40
2023-08-15T19:21:02.211Z,101066.80
2023-08-15T19:23:28.717Z,101066.20
2023-08-15T19:25:55.278Z,101062.40
2023-08-15T19:28:22.603Z,101062.80
2023-08-15T19:30:49.091Z,101066.80
2023-08-15T19:33:15.746Z,101065.00
2023-08-15T19:35:42.437Z,101066.20
2023-08-15T19:38:09.112Z,101066.60
2023-08-15T19:40:35.644Z,101066.40
2023-08-15T19:43:02.654Z,101068.00
2023-08-15T19:45:29.232Z,101068.00
2023-08-15T19:47:57.372Z,101069.40
2023-08-15T19:50:23.938Z,101071.00
2023-08-15T19:52:50.409Z,101069.60
2023-08-15T19:55:16.859Z,101071.40
2023-08-15T19:57:43.383Z,101070.80
2023-08-15T20:00:11.073Z,101081.40
2023-08-15T20:02:40.003Z,101076.00
2023-08-15T20:05:08.733Z,101082.40
2023-08-15T20:07:36.481Z,101090.60
2023-08-15T20:10:15.951Z,101088.00
2023-08-15T20:12:42.548Z,101085.20
2023-08-15T20:15:09.902Z,101089.60
2023-08-15T20:17:36.490Z,101088.80
2023-08-15T20:20:03.396Z,101084.40
2023-08-15T20:22:32.003Z,101084.20
2023-08-15T20:24:58.498Z,101090.20
2023-08-15T20:27:25.111Z,101088.60
2023-08-15T20:29:56.832Z,101083.20
2023-08-15T20:32:29.364Z,101085.40
2023-08-15T20:34:55.993Z,101083.00
2023-08-15T20:37:22.710Z,101084.00
2023-08-15T20:39:49.416Z,101081.80
2023-08-15T20:42:16.235Z,101074.00
2023-08-15T20:44:42.985Z,101068.80
2023-08-15T20:47:10.508Z,101067.60
2023-08-15T20:49:41.812Z,101070.60
2023-08-15T20:52:10.268Z,101071.00
2023-08-15T20:54:36.809Z,101071.60
2023-08-15T20:57:04.531Z,101073.80
2023-08-15T20:59:31.294Z,101074.00
2023-08-15T21:01:57.993Z,101073.40
2023-08-15T21:04:24.811Z,101076.00
2023-08-15T21:06:52.864Z,101076.20
2023-08-15T21:09:20.272Z,101078.00
2023-08-15T21:11:47.477Z,101072.20
2023-08-15T21:14:15.090Z,101079.80
2023-08-15T21:16:41.614Z,101081.40
2023-08-15T21:19:08.388Z,101078.80
2023-08-15T21:21:35.181Z,101080.00
2023-08-15T21:24:01.677Z,101081.20
2023-08-15T21:26:28.340Z,101080.80
2023-08-15T21:28:54.826Z,101078.80
2023-08-15T21:31:23.607Z,101082.00
2023-08-15T21:33:50.046Z,101083.00
2023-08-15T21:36:16.553Z,101084.00
2023-08-15T21:38:43.006Z,101081.20
2023-08-15T21:41:09.453Z,101079.80
2023-08-15T21:43:36.636Z,101072.80
2023-08-15T21:46:03.154Z,101075.80
2023-08-15T21:48:29.742Z,101069.60
2023-08-15T21:50:56.234Z,101074.40
2023-08-15T21:53:22.898Z,101075.40
2023-08-15T21:55:49.382Z,101069.60
2023-08-15T21:58:16.304Z,101069.40
2023-08-15T22:00:43.304Z,101073.20
2023-08-15T22:03:10.817Z,101072.80
2023-08-15T22:05:37.419Z,101073.40
2023-08-15T22:08:04.550Z,101071.80
2023-08-15T22:10:31.355Z,101068.20
2023-08-15T22:12:57.896Z,101074.40
2023-08-15T22:15:27.871Z,101063.60
2023-08-15T22:18:04.392Z,101066.00
2023-08-15T22:20:41.248Z,101065.00
2023-08-15T22:23:08.066Z,101064.00
2023-08-15T22:25:35.146Z,101062.80
2023-08-15T22:28:01.919Z,101061.00
2023-08-15T22:30:29.204Z,101055.00
2023-08-15T22:32:55.849Z,101058.60
2023-08-15T22:35:39.489Z,101057.40
2023-08-15T22:38:07.182Z,101063.60
2023-08-15T22:40:34.477Z,101060.20
2023-08-15T22:43:00.980Z,101061.00
2023-08-15T22:45:27.715Z,101062.80
2023-08-15T22:47:54.454Z,101067.00
2023-08-15T22:50:23.782Z,101073.40
2023-08-15T22:52:50.580Z,101075.80
2023-08-15T22:55:17.579Z,101075.80
2023-08-15T22:57:44.341Z,101075.00
2023-08-15T23:00:11.905Z,101078.00
2023-08-15T23:02:38.825Z,101078.40
2023-08-15T23:05:06.096Z,101084.80
2023-08-15T23:07:32.697Z,101089.40
2023-08-15T23:09:59.643Z,101094.40
2023-08-15T23:12:26.321Z,101087.00
2023-08-15T23:14:53.037Z,101092.00
2023-08-15T23:17:19.928Z,101088.60
2023-08-15T23:19:46.412Z,101091.20
2023-08-15T23:22:12.973Z,101100.80
2023-08-15T23:24:39.677Z,101102.80
2023-08-15T23:27:06.504Z,101097.20
2023-08-15T23:29:36.767Z,101101.80
2023-08-15T23:32:04.502Z,101095.40
2023-08-15T23:34:32.097Z,101088.40
2023-08-15T23:36:58.566Z,101087.00
2023-08-15T23:39:25.751Z,101087.60
2023-08-15T23:41:52.520Z,101094.20
2023-08-15T23:44:22.308Z,101084.60
2023-08-15T23:46:49.348Z,101084.20
2023-08-15T23:49:16.041Z,101085.20
2023-08-15T23:51:43.660Z,101081.80
2023-08-15T23:54:10.440Z,101078.40
2023-08-15T23:56:37.992Z,101071.40
2023-08-15T23:59:04.845Z,101068.20
